Skip Navigation Links
NOAA logo - Click to go to the NOAA homepage
NOAA's National Weather Service
Alaska Aviation Weather Unit
  NWS logo - Click to go to the NWS homepage
Left Navbar Graphic     21 AKDT = 05 GMT

   
NOAA is celebrating 200 years of science, service, and stewardship. Visit the NOAA 200th celebration Web site to learn more.
USA.gov is the U.S. Government's official Web portal to all Federal, state and local government Web resources and services.
Facebook
NWS on Facebook

Important Change Regarding the AAWU Web Presence

 

Over the last several months, the AAWU has been working to navigate its webpages to a nationally supported server. Security, as well as other needs, have necessitated the change.  In the process, we have made an effort to enhance the functionality of our website, as well as some of our products. As of June 27, 2017, aawu.arh.noaa.gov will be discontinued. The new AAWU web address is weather.gov/aawu. It is now live and will run in-parallel with the old site until it is discontinued. Please send any feedback or questions regarding the new webpages to nws.ar.aawu.webauthors@noaa.gov.  Thank you for your patience during this time of transition.
AAWU Home :: Display TAF Add Bookmark
METAR PAGN 252356Z AUTO 24006KT 10SM SCT012 OVC060 12/09 A3000 RMK AO2
     SLP149 60002 T01170094 10128 20100 51002=

SPECI PAGN 260006Z AUTO VRB03KT 10SM FEW009 SCT012 OVC060 12/09 A3000
     RMK AO2=

METAR PAGN 260056Z AUTO 00000KT 10SM FEW014 BKN034 OVC065 12/09 A3000
     RMK AO2 SLP149 T01170094=

SPECI PAGN 260137Z AUTO 18007KT 10SM BKN015 BKN030 OVC070 12/09 A3000
     RMK AO2=

METAR PAGN 260156Z AUTO 19005KT 10SM BKN017 OVC028 12/09 A3000 RMK AO2
     SLP147 T01170094=

METAR PAGN 260256Z AUTO 20004KT 10SM OVC022 11/09 A3000 RMK AO2 SLP148
     T01110089 55001=

SPECI PAGN 260322Z AUTO 16003KT 10SM SCT024 BKN037 OVC045 11/09
 A3000 RMK AO2=

SPECI PAGN 260336Z AUTO VRB03KT 6SM -RA BR FEW022 BKN029 OVC045
 11/09 A3000 RMK AO2 RAB36 P0000=

METAR PAGN 260356Z AUTO VRB03KT 6SM -RA BR BKN027 OVC034 11/09 A3000 RMK
     AO2 RAB36 SLP147 P0000 T01060094=

SPECI PAGN 260432Z AUTO 15004KT 2 1/2SM -RA BR FEW006 BKN021 OVC028
     10/09 A3000 RMK AO2 P0001=

SPECI PAGN 260452Z AUTO 16003KT 3SM -RA BR BKN019 BKN027 OVC034 10/09
     A3000 RMK AO2 P0003=

METAR PAGN 260456Z AUTO 00000KT 2 1/2SM -RA BR BKN019 BKN029 OVC034
     10/09 A3000 RMK AO2 SLP147 P0004 T01000094=

SPECI PAGN 260503Z AUTO 00000KT 3SM RA BR SCT019 SCT029 OVC038 10/09
     A3000 RMK AO2 P0001=

SPECI PAGN 260516Z AUTO VRB03KT 8SM -RA BKN011 BKN017 OVC038 10/09 A3000
     RMK AO2 P0002=


NOAA's National Weather Service
Alaska Aviation Weather Unit
6930 Sand Lake Road
Anchorage, AK 99502-1845
Disclaimer
Credits
Glossary
Privacy Policy
About Us
Career Opportunities
Contact AAWU Internet Services Site last modified: April, 17th 2012